This is the latest recevied weather packets stored in our database for station/object F4FEB-14. If no packets are shown the sender has not sent any weather packets the latest 1 day(s).
| Time | Temp. | Humidity | Pressure | Rain* | Wind** | Luminosity | Snow |
|---|---|---|---|---|---|---|---|
| 1778099932 | 8.33° C | 100% | 1014 hPa | 0 mm | - | - | - |
| 1778098726 | 7.78° C | 100% | 1013.9 hPa | 0 mm | - | - | - |
| 1778096918 | 7.78° C | 100% | 1013.7 hPa | 0.51 mm | - | - | - |
| 1778095111 | 8.33° C | 100% | 1013.4 hPa | 0 mm | - | - | - |
| 1778094207 | 8.33° C | 100% | 1013.3 hPa | 0.51 mm | - | - | - |
| 1778093906 | 8.33° C | 100% | 1013.3 hPa | 0.25 mm | - | - | - |
| 1778093304 | 8.33° C | 100% | 1013.2 hPa | 0.25 mm | - | - | - |
| 1778092701 | 8.33° C | 100% | 1013.1 hPa | 0 mm | - | - | - |
| 1778091796 | 8.33° C | 100% | 1013.2 hPa | 0 mm | - | - | - |
| 1778091496 | 8.33° C | 100% | 1013 hPa | 0 mm | - | - | - |
| 1778091194 | 8.33° C | 100% | 1013 hPa | 0.76 mm | - | - | - |
| 1778090893 | 8.33° C | 100% | 1012.9 hPa | 0.76 mm | - | - | - |
| 1778090291 | 8.33° C | 100% | 1012.8 hPa | 0.51 mm | - | - | - |
| 1778089990 | 8.33° C | 100% | 1012.8 hPa | 0.25 mm | - | - | - |
| 1778088786 | 8.33° C | 100% | 1012.7 hPa | 0 mm | - | - | - |
| 1778084265 | 10° C | 100% | 1012.3 hPa | 0 mm | - | - | - |
| 1778083961 | 10° C | 100% | 1012.2 hPa | 0.76 mm | - | - | - |
| 1778083660 | 10.56° C | 100% | 1011.8 hPa | 0.51 mm | - | - | - |
| 1778083057 | 10.56° C | 100% | 1011.8 hPa | 0.51 mm | - | - | - |
| 1778082455 | 10.56° C | 100% | 1011.7 hPa | 0.51 mm | - | - | - |
| 1778081251 | 10.56° C | 100% | 1011.6 hPa | 0.25 mm | - | - | - |
| 1778078238 | 11.11° C | 100% | 1011.6 hPa | 0 mm | - | - | - |
| 1778076733 | 10.56° C | 100% | 1011.7 hPa | 0.25 mm | - | - | - |
| 1778076432 | 11.11° C | 100% | 1011.7 hPa | 0.25 mm | - | - | - |
| 1778075830 | 11.11° C | 100% | 1011.6 hPa | 0 mm | - | - | - |
* Rain latest hour (hover to see other rain measurements)
** Current wind speed in m/s (hover to see current wind gust speed)